sensor_id;sensor_type;location;lat;lon;timestamp;P1;durP1;ratioP1;P2;durP2;ratioP2
17261;SDS011;9873;52.236;21.002;2022-12-18T00:04:30;30.70;;;13.27;;
17261;SDS011;9873;52.236;21.002;2022-12-18T00:14:37;34.77;;;14.90;;
17261;SDS011;9873;52.236;21.002;2022-12-18T00:24:44;23.97;;;11.87;;
17261;SDS011;9873;52.236;21.002;2022-12-18T00:34:46;34.93;;;15.60;;
17261;SDS011;9873;52.236;21.002;2022-12-18T00:44:54;40.00;;;16.30;;
17261;SDS011;9873;52.236;21.002;2022-12-18T00:54:59;38.83;;;15.50;;
17261;SDS011;9873;52.236;21.002;2022-12-18T01:05:07;22.20;;;10.67;;
17261;SDS011;9873;52.236;21.002;2022-12-18T01:15:15;37.20;;;15.97;;
17261;SDS011;9873;52.236;21.002;2022-12-18T01:25:20;28.77;;;12.43;;
17261;SDS011;9873;52.236;21.002;2022-12-18T01:35:31;17.83;;;7.77;;
17261;SDS011;9873;52.236;21.002;2022-12-18T01:45:33;20.40;;;9.33;;
17261;SDS011;9873;52.236;21.002;2022-12-18T01:55:57;27.77;;;12.50;;
17261;SDS011;9873;52.236;21.002;2022-12-18T02:06:23;31.33;;;13.73;;
17261;SDS011;9873;52.236;21.002;2022-12-18T02:16:28;25.27;;;11.87;;
17261;SDS011;9873;52.236;21.002;2022-12-18T02:26:40;29.27;;;13.30;;
17261;SDS011;9873;52.236;21.002;2022-12-18T02:36:47;31.70;;;13.90;;
17261;SDS011;9873;52.236;21.002;2022-12-18T02:46:52;30.10;;;12.70;;
17261;SDS011;9873;52.236;21.002;2022-12-18T02:56:59;15.90;;;7.40;;
17261;SDS011;9873;52.236;21.002;2022-12-18T03:07:18;27.67;;;11.07;;
17261;SDS011;9873;52.236;21.002;2022-12-18T03:17:25;25.23;;;11.00;;
17261;SDS011;9873;52.236;21.002;2022-12-18T03:27:29;28.33;;;12.30;;
17261;SDS011;9873;52.236;21.002;2022-12-18T03:37:42;25.27;;;9.90;;
17261;SDS011;9873;52.236;21.002;2022-12-18T03:47:52;21.83;;;9.23;;
17261;SDS011;9873;52.236;21.002;2022-12-18T03:58:17;27.97;;;11.70;;
17261;SDS011;9873;52.236;21.002;2022-12-18T04:08:31;17.53;;;7.80;;
17261;SDS011;9873;52.236;21.002;2022-12-18T04:18:38;20.23;;;7.93;;
17261;SDS011;9873;52.236;21.002;2022-12-18T04:28:40;23.13;;;9.00;;
17261;SDS011;9873;52.236;21.002;2022-12-18T04:38:43;28.07;;;10.90;;
17261;SDS011;9873;52.236;21.002;2022-12-18T04:48:51;25.77;;;9.20;;
17261;SDS011;9873;52.236;21.002;2022-12-18T04:58:54;22.20;;;9.10;;
17261;SDS011;9873;52.236;21.002;2022-12-18T05:09:00;23.40;;;10.73;;
17261;SDS011;9873;52.236;21.002;2022-12-18T05:19:04;28.33;;;11.63;;
17261;SDS011;9873;52.236;21.002;2022-12-18T05:29:07;26.27;;;10.23;;
17261;SDS011;9873;52.236;21.002;2022-12-18T05:39:19;19.90;;;9.80;;
17261;SDS011;9873;52.236;21.002;2022-12-18T05:49:21;32.53;;;11.13;;
17261;SDS011;9873;52.236;21.002;2022-12-18T05:59:27;26.17;;;10.53;;
17261;SDS011;9873;52.236;21.002;2022-12-18T06:09:30;28.93;;;11.70;;
17261;SDS011;9873;52.236;21.002;2022-12-18T06:19:35;22.70;;;9.43;;
17261;SDS011;9873;52.236;21.002;2022-12-18T06:29:39;34.43;;;14.40;;
17261;SDS011;9873;52.236;21.002;2022-12-18T06:39:49;38.90;;;15.10;;
17261;SDS011;9873;52.236;21.002;2022-12-18T06:49:51;41.07;;;12.40;;
17261;SDS011;9873;52.236;21.002;2022-12-18T06:59:57;37.33;;;13.10;;
17261;SDS011;9873;52.236;21.002;2022-12-18T07:09:59;41.93;;;14.60;;
17261;SDS011;9873;52.236;21.002;2022-12-18T07:20:11;40.37;;;14.60;;
17261;SDS011;9873;52.236;21.002;2022-12-18T07:30:19;37.53;;;15.40;;
17261;SDS011;9873;52.236;21.002;2022-12-18T07:40:24;41.80;;;15.33;;
17261;SDS011;9873;52.236;21.002;2022-12-18T07:50:36;44.03;;;13.97;;
17261;SDS011;9873;52.236;21.002;2022-12-18T08:00:42;39.37;;;15.63;;
17261;SDS011;9873;52.236;21.002;2022-12-18T08:10:46;37.47;;;14.57;;
17261;SDS011;9873;52.236;21.002;2022-12-18T08:20:51;46.63;;;17.45;;
17261;SDS011;9873;52.236;21.002;2022-12-18T08:31:00;38.97;;;14.87;;
17261;SDS011;9873;52.236;21.002;2022-12-18T08:41:04;25.30;;;11.33;;
17261;SDS011;9873;52.236;21.002;2022-12-18T08:51:09;30.27;;;11.40;;
17261;SDS011;9873;52.236;21.002;2022-12-18T09:01:12;35.37;;;13.13;;
17261;SDS011;9873;52.236;21.002;2022-12-18T09:11:19;36.47;;;13.70;;
17261;SDS011;9873;52.236;21.002;2022-12-18T09:21:27;31.80;;;13.30;;
17261;SDS011;9873;52.236;21.002;2022-12-18T09:31:31;36.57;;;14.03;;
17261;SDS011;9873;52.236;21.002;2022-12-18T09:41:52;30.03;;;12.93;;
17261;SDS011;9873;52.236;21.002;2022-12-18T09:52:04;27.13;;;12.17;;
17261;SDS011;9873;52.236;21.002;2022-12-18T10:02:15;43.60;;;18.27;;
17261;SDS011;9873;52.236;21.002;2022-12-18T10:33:32;45.73;;;19.30;;
17261;SDS011;9873;52.236;21.002;2022-12-18T10:43:36;43.77;;;16.67;;
17261;SDS011;9873;52.236;21.002;2022-12-18T10:53:40;42.30;;;17.07;;
17261;SDS011;9873;52.236;21.002;2022-12-18T11:03:45;47.83;;;19.73;;
17261;SDS011;9873;52.236;21.002;2022-12-18T11:14:04;43.77;;;17.57;;
17261;SDS011;9873;52.236;21.002;2022-12-18T11:24:07;35.70;;;15.17;;
17261;SDS011;9873;52.236;21.002;2022-12-18T11:34:23;45.50;;;19.23;;
17261;SDS011;9873;52.236;21.002;2022-12-18T11:44:49;54.63;;;19.13;;
17261;SDS011;9873;52.236;21.002;2022-12-18T11:54:52;45.47;;;17.30;;
17261;SDS011;9873;52.236;21.002;2022-12-18T12:05:00;40.37;;;16.57;;
17261;SDS011;9873;52.236;21.002;2022-12-18T12:46:06;38.00;;;16.97;;
17261;SDS011;9873;52.236;21.002;2022-12-18T12:56:16;53.57;;;18.67;;
17261;SDS011;9873;52.236;21.002;2022-12-18T13:16:45;55.63;;;21.57;;
17261;SDS011;9873;52.236;21.002;2022-12-18T13:26:47;48.77;;;19.73;;
17261;SDS011;9873;52.236;21.002;2022-12-18T13:36:50;50.37;;;21.23;;
17261;SDS011;9873;52.236;21.002;2022-12-18T13:46:56;54.00;;;20.80;;
17261;SDS011;9873;52.236;21.002;2022-12-18T13:56:59;49.60;;;19.23;;
17261;SDS011;9873;52.236;21.002;2022-12-18T14:07:06;48.40;;;20.60;;
17261;SDS011;9873;52.236;21.002;2022-12-18T14:17:10;47.13;;;18.53;;
17261;SDS011;9873;52.236;21.002;2022-12-18T14:27:25;46.63;;;18.13;;
17261;SDS011;9873;52.236;21.002;2022-12-18T14:37:27;51.67;;;19.00;;
17261;SDS011;9873;52.236;21.002;2022-12-18T14:47:32;47.63;;;19.27;;
17261;SDS011;9873;52.236;21.002;2022-12-18T14:57:36;68.27;;;31.00;;
17261;SDS011;9873;52.236;21.002;2022-12-18T15:07:40;52.37;;;20.50;;
17261;SDS011;9873;52.236;21.002;2022-12-18T15:17:47;52.97;;;19.83;;
17261;SDS011;9873;52.236;21.002;2022-12-18T15:27:51;50.10;;;20.03;;
17261;SDS011;9873;52.236;21.002;2022-12-18T15:37:56;48.37;;;18.77;;
17261;SDS011;9873;52.236;21.002;2022-12-18T15:47:58;50.27;;;18.47;;
17261;SDS011;9873;52.236;21.002;2022-12-18T15:58:05;45.13;;;18.60;;
17261;SDS011;9873;52.236;21.002;2022-12-18T16:08:12;53.83;;;19.63;;
17261;SDS011;9873;52.236;21.002;2022-12-18T16:18:17;41.77;;;18.67;;
17261;SDS011;9873;52.236;21.002;2022-12-18T16:28:19;43.67;;;16.27;;
17261;SDS011;9873;52.236;21.002;2022-12-18T16:38:23;45.27;;;16.93;;
17261;SDS011;9873;52.236;21.002;2022-12-18T16:48:27;38.87;;;19.17;;
17261;SDS011;9873;52.236;21.002;2022-12-18T16:58:30;40.50;;;14.63;;
17261;SDS011;9873;52.236;21.002;2022-12-18T17:08:37;36.17;;;13.40;;
17261;SDS011;9873;52.236;21.002;2022-12-18T17:18:45;39.27;;;17.23;;
17261;SDS011;9873;52.236;21.002;2022-12-18T17:28:47;42.53;;;15.40;;
17261;SDS011;9873;52.236;21.002;2022-12-18T17:38:54;43.27;;;16.80;;
17261;SDS011;9873;52.236;21.002;2022-12-18T17:48:59;43.00;;;18.70;;
17261;SDS011;9873;52.236;21.002;2022-12-18T17:59:05;35.73;;;13.37;;
17261;SDS011;9873;52.236;21.002;2022-12-18T18:09:10;39.07;;;17.00;;
17261;SDS011;9873;52.236;21.002;2022-12-18T18:19:21;42.90;;;17.53;;
17261;SDS011;9873;52.236;21.002;2022-12-18T18:29:29;35.30;;;12.93;;
17261;SDS011;9873;52.236;21.002;2022-12-18T18:39:37;37.23;;;17.87;;
17261;SDS011;9873;52.236;21.002;2022-12-18T18:49:40;21.57;;;10.57;;
17261;SDS011;9873;52.236;21.002;2022-12-18T18:59:42;22.33;;;8.40;;
17261;SDS011;9873;52.236;21.002;2022-12-18T19:09:45;44.07;;;17.77;;
17261;SDS011;9873;52.236;21.002;2022-12-18T19:19:52;30.57;;;14.67;;
17261;SDS011;9873;52.236;21.002;2022-12-18T19:29:59;46.70;;;15.93;;
17261;SDS011;9873;52.236;21.002;2022-12-18T19:40:04;35.33;;;14.13;;
17261;SDS011;9873;52.236;21.002;2022-12-18T19:50:15;39.43;;;17.07;;
17261;SDS011;9873;52.236;21.002;2022-12-18T20:00:18;36.40;;;14.17;;
17261;SDS011;9873;52.236;21.002;2022-12-18T20:10:23;45.40;;;21.40;;
17261;SDS011;9873;52.236;21.002;2022-12-18T20:20:30;41.50;;;15.43;;
17261;SDS011;9873;52.236;21.002;2022-12-18T20:30:35;35.03;;;16.83;;
17261;SDS011;9873;52.236;21.002;2022-12-18T20:40:39;29.83;;;12.57;;
17261;SDS011;9873;52.236;21.002;2022-12-18T20:50:42;27.33;;;11.40;;
17261;SDS011;9873;52.236;21.002;2022-12-18T21:00:45;26.93;;;12.13;;
17261;SDS011;9873;52.236;21.002;2022-12-18T21:10:50;20.60;;;7.73;;
17261;SDS011;9873;52.236;21.002;2022-12-18T21:21:05;28.50;;;12.67;;
17261;SDS011;9873;52.236;21.002;2022-12-18T21:31:07;24.83;;;10.63;;
17261;SDS011;9873;52.236;21.002;2022-12-18T21:41:14;36.73;;;13.63;;
17261;SDS011;9873;52.236;21.002;2022-12-18T21:51:43;33.30;;;13.83;;
17261;SDS011;9873;52.236;21.002;2022-12-18T22:01:51;14.07;;;6.23;;
17261;SDS011;9873;52.236;21.002;2022-12-18T22:11:58;30.40;;;13.70;;
17261;SDS011;9873;52.236;21.002;2022-12-18T22:22:01;34.60;;;13.37;;
17261;SDS011;9873;52.236;21.002;2022-12-18T22:32:04;37.80;;;17.50;;
17261;SDS011;9873;52.236;21.002;2022-12-18T22:42:11;34.90;;;14.00;;
17261;SDS011;9873;52.236;21.002;2022-12-18T22:52:13;33.50;;;15.63;;
17261;SDS011;9873;52.236;21.002;2022-12-18T23:02:21;27.13;;;11.70;;
17261;SDS011;9873;52.236;21.002;2022-12-18T23:12:27;29.77;;;10.87;;
17261;SDS011;9873;52.236;21.002;2022-12-18T23:22:37;29.30;;;11.90;;
17261;SDS011;9873;52.236;21.002;2022-12-18T23:32:43;28.23;;;10.90;;
17261;SDS011;9873;52.236;21.002;2022-12-18T23:42:47;27.90;;;10.10;;
17261;SDS011;9873;52.236;21.002;2022-12-18T23:52:52;22.27;;;10.03;;
